sensor_id;sensor_type;location;lat;lon;timestamp;P1;durP1;ratioP1;P2;durP2;ratioP2
11616;SDS011;5864;52.998;9.068;2022-08-01T00:00:42;1.70;;;1.60;;
11616;SDS011;5864;52.998;9.068;2022-08-01T00:03:10;2.37;;;2.03;;
11616;SDS011;5864;52.998;9.068;2022-08-01T00:05:37;2.23;;;2.03;;
11616;SDS011;5864;52.998;9.068;2022-08-01T00:08:05;3.40;;;3.13;;
11616;SDS011;5864;52.998;9.068;2022-08-01T00:10:32;3.83;;;3.20;;
11616;SDS011;5864;52.998;9.068;2022-08-01T00:13:00;5.23;;;3.33;;
11616;SDS011;5864;52.998;9.068;2022-08-01T00:15:27;3.70;;;3.40;;
11616;SDS011;5864;52.998;9.068;2022-08-01T00:17:56;4.00;;;3.60;;
11616;SDS011;5864;52.998;9.068;2022-08-01T00:20:24;4.50;;;4.10;;
11616;SDS011;5864;52.998;9.068;2022-08-01T00:22:51;4.23;;;3.93;;
11616;SDS011;5864;52.998;9.068;2022-08-01T00:25:19;4.33;;;4.03;;
11616;SDS011;5864;52.998;9.068;2022-08-01T00:27:46;4.23;;;3.83;;
11616;SDS011;5864;52.998;9.068;2022-08-01T00:30:14;4.67;;;3.40;;
11616;SDS011;5864;52.998;9.068;2022-08-01T00:32:41;4.40;;;4.00;;
11616;SDS011;5864;52.998;9.068;2022-08-01T00:35:10;4.40;;;4.00;;
11616;SDS011;5864;52.998;9.068;2022-08-01T00:37:38;4.10;;;3.80;;
11616;SDS011;5864;52.998;9.068;2022-08-01T00:40:06;4.63;;;3.97;;
11616;SDS011;5864;52.998;9.068;2022-08-01T00:42:34;4.17;;;3.83;;
11616;SDS011;5864;52.998;9.068;2022-08-01T00:45:02;4.10;;;3.70;;
11616;SDS011;5864;52.998;9.068;2022-08-01T00:47:30;4.17;;;3.77;;
11616;SDS011;5864;52.998;9.068;2022-08-01T00:49:58;3.57;;;3.30;;
11616;SDS011;5864;52.998;9.068;2022-08-01T00:52:26;4.60;;;3.50;;
11616;SDS011;5864;52.998;9.068;2022-08-01T00:54:54;3.97;;;3.13;;
11616;SDS011;5864;52.998;9.068;2022-08-01T00:57:21;3.83;;;3.43;;
11616;SDS011;5864;52.998;9.068;2022-08-01T00:59:49;5.60;;;4.17;;
11616;SDS011;5864;52.998;9.068;2022-08-01T01:02:17;5.47;;;4.03;;
11616;SDS011;5864;52.998;9.068;2022-08-01T01:04:45;3.53;;;3.23;;
11616;SDS011;5864;52.998;9.068;2022-08-01T01:07:14;3.87;;;3.23;;
11616;SDS011;5864;52.998;9.068;2022-08-01T01:09:50;4.67;;;4.13;;
11616;SDS011;5864;52.998;9.068;2022-08-01T01:12:25;4.20;;;3.80;;
11616;SDS011;5864;52.998;9.068;2022-08-01T01:14:56;6.43;;;4.57;;
11616;SDS011;5864;52.998;9.068;2022-08-01T01:17:32;5.00;;;4.40;;
11616;SDS011;5864;52.998;9.068;2022-08-01T01:20:03;4.17;;;3.73;;
11616;SDS011;5864;52.998;9.068;2022-08-01T01:22:39;4.93;;;4.43;;
11616;SDS011;5864;52.998;9.068;2022-08-01T01:25:28;4.97;;;3.90;;
11616;SDS011;5864;52.998;9.068;2022-08-01T01:28:08;6.03;;;4.47;;
11616;SDS011;5864;52.998;9.068;2022-08-01T01:30:45;4.70;;;4.20;;
11616;SDS011;5864;52.998;9.068;2022-08-01T01:33:15;5.37;;;4.87;;
11616;SDS011;5864;52.998;9.068;2022-08-01T01:35:45;4.47;;;4.07;;
11616;SDS011;5864;52.998;9.068;2022-08-01T01:38:16;4.90;;;4.40;;
11616;SDS011;5864;52.998;9.068;2022-08-01T01:40:46;3.90;;;3.57;;
11616;SDS011;5864;52.998;9.068;2022-08-01T01:43:17;4.17;;;3.77;;
11616;SDS011;5864;52.998;9.068;2022-08-01T01:45:47;5.17;;;4.40;;
11616;SDS011;5864;52.998;9.068;2022-08-01T01:48:16;6.63;;;6.00;;
11616;SDS011;5864;52.998;9.068;2022-08-01T01:50:46;5.20;;;4.73;;
11616;SDS011;5864;52.998;9.068;2022-08-01T01:53:15;5.87;;;5.27;;
11616;SDS011;5864;52.998;9.068;2022-08-01T01:55:48;5.77;;;5.27;;
11616;SDS011;5864;52.998;9.068;2022-08-01T01:58:19;7.07;;;6.37;;
11616;SDS011;5864;52.998;9.068;2022-08-01T02:00:50;7.23;;;6.23;;
11616;SDS011;5864;52.998;9.068;2022-08-01T02:03:19;8.87;;;6.43;;
11616;SDS011;5864;52.998;9.068;2022-08-01T02:05:48;6.90;;;6.20;;
11616;SDS011;5864;52.998;9.068;2022-08-01T02:08:17;8.00;;;7.20;;
11616;SDS011;5864;52.998;9.068;2022-08-01T02:10:45;8.30;;;7.50;;
11616;SDS011;5864;52.998;9.068;2022-08-01T02:13:28;8.33;;;7.40;;
11616;SDS011;5864;52.998;9.068;2022-08-01T02:15:58;7.80;;;7.10;;
11616;SDS011;5864;52.998;9.068;2022-08-01T02:18:26;8.83;;;7.83;;
11616;SDS011;5864;52.998;9.068;2022-08-01T02:20:54;8.20;;;6.80;;
11616;SDS011;5864;52.998;9.068;2022-08-01T02:23:24;9.07;;;8.13;;
11616;SDS011;5864;52.998;9.068;2022-08-01T02:25:55;9.30;;;7.77;;
11616;SDS011;5864;52.998;9.068;2022-08-01T02:28:28;9.07;;;8.13;;
11616;SDS011;5864;52.998;9.068;2022-08-01T02:31:01;10.60;;;9.50;;
11616;SDS011;5864;52.998;9.068;2022-08-01T02:33:33;8.70;;;7.80;;
11616;SDS011;5864;52.998;9.068;2022-08-01T02:36:04;12.53;;;9.27;;
11616;SDS011;5864;52.998;9.068;2022-08-01T02:38:35;8.60;;;7.70;;
11616;SDS011;5864;52.998;9.068;2022-08-01T02:41:05;7.30;;;6.60;;
11616;SDS011;5864;52.998;9.068;2022-08-01T02:43:36;4.77;;;4.33;;
11616;SDS011;5864;52.998;9.068;2022-08-01T02:46:07;4.60;;;4.20;;
11616;SDS011;5864;52.998;9.068;2022-08-01T02:48:38;3.97;;;3.60;;
11616;SDS011;5864;52.998;9.068;2022-08-01T02:51:08;3.70;;;3.27;;
11616;SDS011;5864;52.998;9.068;2022-08-01T02:53:38;3.23;;;2.93;;
11616;SDS011;5864;52.998;9.068;2022-08-01T02:56:08;5.07;;;3.20;;
11616;SDS011;5864;52.998;9.068;2022-08-01T02:58:38;3.97;;;3.00;;
11616;SDS011;5864;52.998;9.068;2022-08-01T03:01:08;3.90;;;3.07;;
11616;SDS011;5864;52.998;9.068;2022-08-01T03:03:37;3.57;;;3.27;;
11616;SDS011;5864;52.998;9.068;2022-08-01T03:06:05;4.47;;;3.57;;
11616;SDS011;5864;52.998;9.068;2022-08-01T03:08:34;4.77;;;3.60;;
11616;SDS011;5864;52.998;9.068;2022-08-01T03:11:02;4.73;;;3.67;;
11616;SDS011;5864;52.998;9.068;2022-08-01T03:13:32;4.33;;;3.60;;
11616;SDS011;5864;52.998;9.068;2022-08-01T03:16:00;4.33;;;3.93;;
11616;SDS011;5864;52.998;9.068;2022-08-01T03:18:32;4.67;;;4.27;;
11616;SDS011;5864;52.998;9.068;2022-08-01T03:21:03;4.30;;;3.90;;
11616;SDS011;5864;52.998;9.068;2022-08-01T03:23:33;4.50;;;3.60;;
11616;SDS011;5864;52.998;9.068;2022-08-01T03:26:02;4.73;;;4.33;;
11616;SDS011;5864;52.998;9.068;2022-08-01T03:28:31;4.50;;;4.10;;
11616;SDS011;5864;52.998;9.068;2022-08-01T03:30:59;4.40;;;4.00;;
11616;SDS011;5864;52.998;9.068;2022-08-01T03:33:28;4.93;;;3.97;;
11616;SDS011;5864;52.998;9.068;2022-08-01T03:35:57;4.50;;;3.90;;
11616;SDS011;5864;52.998;9.068;2022-08-01T03:38:27;4.40;;;4.00;;
11616;SDS011;5864;52.998;9.068;2022-08-01T03:41:02;4.50;;;4.10;;
11616;SDS011;5864;52.998;9.068;2022-08-01T03:43:39;4.93;;;4.53;;
11616;SDS011;5864;52.998;9.068;2022-08-01T03:46:11;4.50;;;4.10;;
11616;SDS011;5864;52.998;9.068;2022-08-01T03:48:46;5.53;;;4.40;;
11616;SDS011;5864;52.998;9.068;2022-08-01T03:51:16;5.90;;;5.30;;
11616;SDS011;5864;52.998;9.068;2022-08-01T03:53:45;5.33;;;4.83;;
11616;SDS011;5864;52.998;9.068;2022-08-01T03:56:16;4.63;;;4.20;;
11616;SDS011;5864;52.998;9.068;2022-08-01T03:58:46;4.80;;;4.23;;
11616;SDS011;5864;52.998;9.068;2022-08-01T04:01:14;5.23;;;4.47;;
11616;SDS011;5864;52.998;9.068;2022-08-01T04:03:42;5.40;;;4.90;;
11616;SDS011;5864;52.998;9.068;2022-08-01T04:06:10;4.73;;;4.30;;
11616;SDS011;5864;52.998;9.068;2022-08-01T04:08:41;5.80;;;5.20;;
11616;SDS011;5864;52.998;9.068;2022-08-01T04:11:08;6.67;;;4.80;;
11616;SDS011;5864;52.998;9.068;2022-08-01T04:13:36;5.50;;;4.43;;
11616;SDS011;5864;52.998;9.068;2022-08-01T04:16:04;6.40;;;5.80;;
11616;SDS011;5864;52.998;9.068;2022-08-01T04:18:31;5.97;;;5.17;;
11616;SDS011;5864;52.998;9.068;2022-08-01T04:20:59;6.13;;;5.30;;
11616;SDS011;5864;52.998;9.068;2022-08-01T04:23:26;7.93;;;5.53;;
11616;SDS011;5864;52.998;9.068;2022-08-01T04:25:58;7.17;;;5.30;;
11616;SDS011;5864;52.998;9.068;2022-08-01T04:28:30;6.33;;;4.87;;
11616;SDS011;5864;52.998;9.068;2022-08-01T04:31:00;7.90;;;5.10;;
11616;SDS011;5864;52.998;9.068;2022-08-01T04:33:30;5.70;;;5.20;;
11616;SDS011;5864;52.998;9.068;2022-08-01T04:36:02;5.10;;;4.47;;
11616;SDS011;5864;52.998;9.068;2022-08-01T04:38:33;5.53;;;4.63;;
11616;SDS011;5864;52.998;9.068;2022-08-01T04:41:04;5.80;;;5.27;;
11616;SDS011;5864;52.998;9.068;2022-08-01T04:43:33;5.77;;;5.00;;
11616;SDS011;5864;52.998;9.068;2022-08-01T04:46:01;5.43;;;4.93;;
11616;SDS011;5864;52.998;9.068;2022-08-01T04:48:30;6.00;;;5.40;;
11616;SDS011;5864;52.998;9.068;2022-08-01T04:50:59;6.07;;;5.17;;
11616;SDS011;5864;52.998;9.068;2022-08-01T04:53:27;5.20;;;4.57;;
11616;SDS011;5864;52.998;9.068;2022-08-01T04:55:58;4.10;;;3.63;;
11616;SDS011;5864;52.998;9.068;2022-08-01T04:58:27;4.77;;;3.47;;
11616;SDS011;5864;52.998;9.068;2022-08-01T05:00:55;3.50;;;3.10;;
11616;SDS011;5864;52.998;9.068;2022-08-01T05:03:22;3.70;;;3.40;;
11616;SDS011;5864;52.998;9.068;2022-08-01T05:05:50;3.63;;;3.27;;
11616;SDS011;5864;52.998;9.068;2022-08-01T05:08:17;3.63;;;3.33;;
11616;SDS011;5864;52.998;9.068;2022-08-01T05:10:46;3.23;;;2.93;;
11616;SDS011;5864;52.998;9.068;2022-08-01T05:13:13;3.70;;;3.33;;
11616;SDS011;5864;52.998;9.068;2022-08-01T05:15:42;3.43;;;3.13;;
11616;SDS011;5864;52.998;9.068;2022-08-01T05:18:10;3.57;;;3.27;;
11616;SDS011;5864;52.998;9.068;2022-08-01T05:20:38;3.27;;;2.90;;
11616;SDS011;5864;52.998;9.068;2022-08-01T05:23:05;3.70;;;2.47;;
11616;SDS011;5864;52.998;9.068;2022-08-01T05:25:32;3.17;;;2.50;;
11616;SDS011;5864;52.998;9.068;2022-08-01T05:28:00;2.83;;;2.60;;
11616;SDS011;5864;52.998;9.068;2022-08-01T05:30:27;2.20;;;2.00;;
11616;SDS011;5864;52.998;9.068;2022-08-01T05:32:57;3.80;;;2.50;;
11616;SDS011;5864;52.998;9.068;2022-08-01T05:35:24;2.10;;;1.90;;
11616;SDS011;5864;52.998;9.068;2022-08-01T05:37:52;1.80;;;1.70;;
11616;SDS011;5864;52.998;9.068;2022-08-01T05:40:19;2.80;;;2.00;;
11616;SDS011;5864;52.998;9.068;2022-08-01T05:42:47;1.60;;;1.30;;
11616;SDS011;5864;52.998;9.068;2022-08-01T05:45:14;1.63;;;1.50;;
11616;SDS011;5864;52.998;9.068;2022-08-01T05:47:42;1.50;;;1.20;;
11616;SDS011;5864;52.998;9.068;2022-08-01T05:50:11;1.93;;;1.40;;
11616;SDS011;5864;52.998;9.068;2022-08-01T05:52:38;2.70;;;1.57;;
11616;SDS011;5864;52.998;9.068;2022-08-01T05:55:06;1.87;;;1.50;;
11616;SDS011;5864;52.998;9.068;2022-08-01T05:57:34;2.30;;;1.60;;
11616;SDS011;5864;52.998;9.068;2022-08-01T06:00:02;2.40;;;1.33;;
11616;SDS011;5864;52.998;9.068;2022-08-01T06:02:30;2.20;;;1.57;;
11616;SDS011;5864;52.998;9.068;2022-08-01T06:04:58;3.33;;;1.30;;
11616;SDS011;5864;52.998;9.068;2022-08-01T06:07:27;3.13;;;1.70;;
11616;SDS011;5864;52.998;9.068;2022-08-01T06:09:54;3.97;;;1.60;;
11616;SDS011;5864;52.998;9.068;2022-08-01T06:12:22;3.83;;;1.80;;
11616;SDS011;5864;52.998;9.068;2022-08-01T06:14:49;4.03;;;2.07;;
11616;SDS011;5864;52.998;9.068;2022-08-01T06:17:17;3.60;;;1.87;;
11616;SDS011;5864;52.998;9.068;2022-08-01T06:19:45;2.87;;;1.67;;
11616;SDS011;5864;52.998;9.068;2022-08-01T06:22:12;3.43;;;1.90;;
11616;SDS011;5864;52.998;9.068;2022-08-01T06:24:41;4.80;;;1.67;;
11616;SDS011;5864;52.998;9.068;2022-08-01T06:27:08;3.77;;;1.67;;
11616;SDS011;5864;52.998;9.068;2022-08-01T06:29:36;5.37;;;2.10;;
11616;SDS011;5864;52.998;9.068;2022-08-01T06:32:04;6.20;;;2.07;;
11616;SDS011;5864;52.998;9.068;2022-08-01T06:34:32;5.83;;;2.60;;
11616;SDS011;5864;52.998;9.068;2022-08-01T06:36:59;10.00;;;2.73;;
11616;SDS011;5864;52.998;9.068;2022-08-01T06:39:26;4.57;;;2.93;;
11616;SDS011;5864;52.998;9.068;2022-08-01T06:41:55;6.03;;;2.80;;
11616;SDS011;5864;52.998;9.068;2022-08-01T06:44:23;5.43;;;3.20;;
11616;SDS011;5864;52.998;9.068;2022-08-01T06:46:50;9.50;;;2.90;;
11616;SDS011;5864;52.998;9.068;2022-08-01T06:49:18;6.33;;;2.80;;
11616;SDS011;5864;52.998;9.068;2022-08-01T06:51:45;7.53;;;3.33;;
11616;SDS011;5864;52.998;9.068;2022-08-01T06:54:13;8.33;;;3.17;;
11616;SDS011;5864;52.998;9.068;2022-08-01T06:56:41;7.27;;;2.90;;
11616;SDS011;5864;52.998;9.068;2022-08-01T06:59:10;7.10;;;2.90;;
11616;SDS011;5864;52.998;9.068;2022-08-01T07:01:38;7.80;;;3.00;;
11616;SDS011;5864;52.998;9.068;2022-08-01T07:04:05;7.10;;;3.80;;
11616;SDS011;5864;52.998;9.068;2022-08-01T07:06:33;8.00;;;3.33;;
11616;SDS011;5864;52.998;9.068;2022-08-01T07:09:00;9.20;;;3.63;;
11616;SDS011;5864;52.998;9.068;2022-08-01T07:11:29;10.27;;;3.70;;
11616;SDS011;5864;52.998;9.068;2022-08-01T07:13:56;10.63;;;3.60;;
11616;SDS011;5864;52.998;9.068;2022-08-01T07:16:26;16.90;;;4.17;;
11616;SDS011;5864;52.998;9.068;2022-08-01T07:18:53;12.17;;;3.47;;
11616;SDS011;5864;52.998;9.068;2022-08-01T07:21:20;7.27;;;3.63;;
11616;SDS011;5864;52.998;9.068;2022-08-01T07:23:48;10.73;;;3.70;;
11616;SDS011;5864;52.998;9.068;2022-08-01T07:26:15;8.77;;;3.40;;
11616;SDS011;5864;52.998;9.068;2022-08-01T07:28:43;12.07;;;3.67;;
11616;SDS011;5864;52.998;9.068;2022-08-01T07:31:10;7.73;;;2.90;;
11616;SDS011;5864;52.998;9.068;2022-08-01T07:33:39;10.87;;;3.63;;
11616;SDS011;5864;52.998;9.068;2022-08-01T07:36:07;8.93;;;3.40;;
11616;SDS011;5864;52.998;9.068;2022-08-01T07:38:34;11.27;;;3.73;;
11616;SDS011;5864;52.998;9.068;2022-08-01T07:41:02;11.63;;;3.33;;
11616;SDS011;5864;52.998;9.068;2022-08-01T07:43:29;11.93;;;3.40;;
11616;SDS011;5864;52.998;9.068;2022-08-01T07:45:56;7.77;;;3.30;;
11616;SDS011;5864;52.998;9.068;2022-08-01T07:48:24;12.03;;;3.97;;
11616;SDS011;5864;52.998;9.068;2022-08-01T07:50:54;11.17;;;3.53;;
11616;SDS011;5864;52.998;9.068;2022-08-01T07:53:21;10.73;;;3.83;;
11616;SDS011;5864;52.998;9.068;2022-08-01T07:55:49;13.17;;;3.70;;
11616;SDS011;5864;52.998;9.068;2022-08-01T07:58:17;9.80;;;3.90;;
11616;SDS011;5864;52.998;9.068;2022-08-01T08:00:44;9.93;;;3.13;;
11616;SDS011;5864;52.998;9.068;2022-08-01T08:03:12;13.20;;;4.10;;
11616;SDS011;5864;52.998;9.068;2022-08-01T08:05:39;8.43;;;3.40;;
11616;SDS011;5864;52.998;9.068;2022-08-01T08:08:08;8.60;;;4.00;;
11616;SDS011;5864;52.998;9.068;2022-08-01T08:10:37;16.00;;;4.10;;
11616;SDS011;5864;52.998;9.068;2022-08-01T08:13:04;10.20;;;3.20;;
11616;SDS011;5864;52.998;9.068;2022-08-01T08:15:32;11.17;;;4.47;;
11616;SDS011;5864;52.998;9.068;2022-08-01T08:18:00;10.97;;;4.00;;
11616;SDS011;5864;52.998;9.068;2022-08-01T08:20:29;14.37;;;4.73;;
11616;SDS011;5864;52.998;9.068;2022-08-01T08:22:56;13.73;;;3.83;;
11616;SDS011;5864;52.998;9.068;2022-08-01T08:25:26;14.33;;;3.50;;
11616;SDS011;5864;52.998;9.068;2022-08-01T08:27:54;9.17;;;3.70;;
11616;SDS011;5864;52.998;9.068;2022-08-01T08:30:22;10.03;;;3.90;;
11616;SDS011;5864;52.998;9.068;2022-08-01T08:32:49;10.37;;;4.03;;
11616;SDS011;5864;52.998;9.068;2022-08-01T08:35:17;12.13;;;3.70;;
11616;SDS011;5864;52.998;9.068;2022-08-01T08:37:44;14.53;;;4.03;;
11616;SDS011;5864;52.998;9.068;2022-08-01T08:40:13;8.70;;;3.43;;
11616;SDS011;5864;52.998;9.068;2022-08-01T08:42:43;7.80;;;3.30;;
11616;SDS011;5864;52.998;9.068;2022-08-01T08:45:12;9.60;;;3.13;;
11616;SDS011;5864;52.998;9.068;2022-08-01T08:47:39;11.23;;;3.20;;
11616;SDS011;5864;52.998;9.068;2022-08-01T08:50:12;9.47;;;3.27;;
11616;SDS011;5864;52.998;9.068;2022-08-01T08:52:39;10.17;;;3.17;;
11616;SDS011;5864;52.998;9.068;2022-08-01T08:55:08;9.37;;;2.93;;
11616;SDS011;5864;52.998;9.068;2022-08-01T08:57:40;10.53;;;3.70;;
11616;SDS011;5864;52.998;9.068;2022-08-01T09:00:12;9.77;;;2.90;;
11616;SDS011;5864;52.998;9.068;2022-08-01T09:02:41;12.23;;;3.30;;
11616;SDS011;5864;52.998;9.068;2022-08-01T09:05:09;14.23;;;3.77;;
11616;SDS011;5864;52.998;9.068;2022-08-01T09:07:37;9.37;;;3.40;;
11616;SDS011;5864;52.998;9.068;2022-08-01T09:10:05;15.57;;;4.23;;
11616;SDS011;5864;52.998;9.068;2022-08-01T09:12:35;10.07;;;3.27;;
11616;SDS011;5864;52.998;9.068;2022-08-01T09:15:04;9.53;;;3.00;;
11616;SDS011;5864;52.998;9.068;2022-08-01T09:17:40;11.20;;;3.23;;
11616;SDS011;5864;52.998;9.068;2022-08-01T09:20:08;10.10;;;3.30;;
11616;SDS011;5864;52.998;9.068;2022-08-01T09:22:50;8.13;;;2.60;;
11616;SDS011;5864;52.998;9.068;2022-08-01T09:25:17;10.13;;;2.77;;
11616;SDS011;5864;52.998;9.068;2022-08-01T09:27:45;8.00;;;2.70;;
11616;SDS011;5864;52.998;9.068;2022-08-01T09:30:13;10.53;;;3.10;;
11616;SDS011;5864;52.998;9.068;2022-08-01T09:32:53;5.37;;;2.23;;
11616;SDS011;5864;52.998;9.068;2022-08-01T09:35:23;8.90;;;2.60;;
11616;SDS011;5864;52.998;9.068;2022-08-01T09:37:51;4.80;;;2.40;;
11616;SDS011;5864;52.998;9.068;2022-08-01T09:40:18;10.03;;;2.67;;
11616;SDS011;5864;52.998;9.068;2022-08-01T09:42:46;6.43;;;2.33;;
11616;SDS011;5864;52.998;9.068;2022-08-01T09:45:32;10.07;;;2.90;;
11616;SDS011;5864;52.998;9.068;2022-08-01T09:48:06;9.53;;;2.60;;
11616;SDS011;5864;52.998;9.068;2022-08-01T09:50:39;8.00;;;2.53;;
11616;SDS011;5864;52.998;9.068;2022-08-01T09:53:07;7.53;;;2.23;;
11616;SDS011;5864;52.998;9.068;2022-08-01T09:55:35;7.90;;;2.53;;
11616;SDS011;5864;52.998;9.068;2022-08-01T09:58:03;6.87;;;2.27;;
11616;SDS011;5864;52.998;9.068;2022-08-01T10:00:31;8.13;;;2.63;;
11616;SDS011;5864;52.998;9.068;2022-08-01T10:03:00;6.17;;;2.37;;
11616;SDS011;5864;52.998;9.068;2022-08-01T10:05:47;8.10;;;2.50;;
11616;SDS011;5864;52.998;9.068;2022-08-01T10:08:15;5.10;;;2.00;;
11616;SDS011;5864;52.998;9.068;2022-08-01T10:10:43;7.30;;;2.57;;
11616;SDS011;5864;52.998;9.068;2022-08-01T10:13:35;7.87;;;2.50;;
11616;SDS011;5864;52.998;9.068;2022-08-01T10:16:04;9.17;;;2.50;;
11616;SDS011;5864;52.998;9.068;2022-08-01T10:18:34;4.80;;;2.10;;
11616;SDS011;5864;52.998;9.068;2022-08-01T10:21:03;7.57;;;3.07;;
11616;SDS011;5864;52.998;9.068;2022-08-01T10:23:33;5.83;;;2.00;;
11616;SDS011;5864;52.998;9.068;2022-08-01T10:26:01;6.97;;;2.40;;
11616;SDS011;5864;52.998;9.068;2022-08-01T10:28:31;8.63;;;2.33;;
11616;SDS011;5864;52.998;9.068;2022-08-01T10:31:02;5.40;;;2.17;;
11616;SDS011;5864;52.998;9.068;2022-08-01T10:33:30;5.40;;;1.90;;
11616;SDS011;5864;52.998;9.068;2022-08-01T10:35:58;8.07;;;2.40;;
11616;SDS011;5864;52.998;9.068;2022-08-01T10:38:27;6.90;;;2.10;;
11616;SDS011;5864;52.998;9.068;2022-08-01T10:40:55;4.37;;;2.10;;
11616;SDS011;5864;52.998;9.068;2022-08-01T10:43:23;10.73;;;2.40;;
11616;SDS011;5864;52.998;9.068;2022-08-01T10:45:51;7.73;;;2.10;;
11616;SDS011;5864;52.998;9.068;2022-08-01T10:48:20;8.37;;;2.20;;
11616;SDS011;5864;52.998;9.068;2022-08-01T10:50:52;5.67;;;1.80;;
11616;SDS011;5864;52.998;9.068;2022-08-01T10:53:24;4.57;;;1.90;;
11616;SDS011;5864;52.998;9.068;2022-08-01T10:55:58;5.87;;;1.87;;
11616;SDS011;5864;52.998;9.068;2022-08-01T10:58:28;7.90;;;2.23;;
11616;SDS011;5864;52.998;9.068;2022-08-01T11:03:56;5.43;;;2.07;;
11616;SDS011;5864;52.998;9.068;2022-08-01T11:06:35;7.10;;;1.97;;
11616;SDS011;5864;52.998;9.068;2022-08-01T11:09:23;5.80;;;1.87;;
11616;SDS011;5864;52.998;9.068;2022-08-01T11:11:57;8.37;;;2.47;;
11616;SDS011;5864;52.998;9.068;2022-08-01T11:14:27;4.50;;;2.07;;
11616;SDS011;5864;52.998;9.068;2022-08-01T11:16:55;5.83;;;2.20;;
11616;SDS011;5864;52.998;9.068;2022-08-01T11:19:22;6.90;;;2.43;;
11616;SDS011;5864;52.998;9.068;2022-08-01T11:21:59;8.07;;;1.93;;
11616;SDS011;5864;52.998;9.068;2022-08-01T11:27:25;4.87;;;2.07;;
11616;SDS011;5864;52.998;9.068;2022-08-01T11:32:51;4.00;;;1.70;;
11616;SDS011;5864;52.998;9.068;2022-08-01T11:35:21;5.57;;;2.30;;
11616;SDS011;5864;52.998;9.068;2022-08-01T11:37:50;6.67;;;2.00;;
11616;SDS011;5864;52.998;9.068;2022-08-01T11:40:23;6.83;;;2.43;;
11616;SDS011;5864;52.998;9.068;2022-08-01T11:45:47;5.07;;;1.97;;
11616;SDS011;5864;52.998;9.068;2022-08-01T11:48:19;7.33;;;2.33;;
11616;SDS011;5864;52.998;9.068;2022-08-01T11:50:49;6.70;;;2.00;;
11616;SDS011;5864;52.998;9.068;2022-08-01T11:53:17;6.13;;;2.13;;
11616;SDS011;5864;52.998;9.068;2022-08-01T11:55:47;7.67;;;2.20;;
11616;SDS011;5864;52.998;9.068;2022-08-01T11:58:17;6.53;;;2.10;;
11616;SDS011;5864;52.998;9.068;2022-08-01T12:00:50;6.83;;;2.13;;
11616;SDS011;5864;52.998;9.068;2022-08-01T12:03:23;5.67;;;1.83;;
11616;SDS011;5864;52.998;9.068;2022-08-01T12:05:53;5.57;;;2.13;;
11616;SDS011;5864;52.998;9.068;2022-08-01T12:08:24;5.43;;;2.10;;
11616;SDS011;5864;52.998;9.068;2022-08-01T12:10:53;3.80;;;1.70;;
11616;SDS011;5864;52.998;9.068;2022-08-01T12:13:21;5.77;;;2.03;;
11616;SDS011;5864;52.998;9.068;2022-08-01T12:15:48;5.37;;;1.90;;
11616;SDS011;5864;52.998;9.068;2022-08-01T12:18:16;6.03;;;1.90;;
11616;SDS011;5864;52.998;9.068;2022-08-01T12:20:44;6.67;;;2.27;;
11616;SDS011;5864;52.998;9.068;2022-08-01T12:23:13;7.03;;;1.93;;
11616;SDS011;5864;52.998;9.068;2022-08-01T12:25:42;5.83;;;1.90;;
11616;SDS011;5864;52.998;9.068;2022-08-01T12:28:11;5.20;;;1.77;;
11616;SDS011;5864;52.998;9.068;2022-08-01T12:30:39;7.57;;;2.33;;
11616;SDS011;5864;52.998;9.068;2022-08-01T12:33:08;4.83;;;1.90;;
11616;SDS011;5864;52.998;9.068;2022-08-01T12:35:38;4.17;;;1.60;;
11616;SDS011;5864;52.998;9.068;2022-08-01T12:38:13;4.93;;;1.90;;
11616;SDS011;5864;52.998;9.068;2022-08-01T12:40:42;7.70;;;2.17;;
11616;SDS011;5864;52.998;9.068;2022-08-01T12:43:17;5.43;;;2.20;;
11616;SDS011;5864;52.998;9.068;2022-08-01T12:45:46;6.87;;;1.90;;
11616;SDS011;5864;52.998;9.068;2022-08-01T12:48:17;7.30;;;2.37;;
11616;SDS011;5864;52.998;9.068;2022-08-01T12:50:46;6.60;;;2.10;;
11616;SDS011;5864;52.998;9.068;2022-08-01T12:53:15;7.03;;;2.27;;
11616;SDS011;5864;52.998;9.068;2022-08-01T12:55:44;7.43;;;2.03;;
11616;SDS011;5864;52.998;9.068;2022-08-01T12:58:13;4.97;;;1.87;;
11616;SDS011;5864;52.998;9.068;2022-08-01T13:00:44;7.67;;;1.97;;
11616;SDS011;5864;52.998;9.068;2022-08-01T13:03:14;5.17;;;1.80;;
11616;SDS011;5864;52.998;9.068;2022-08-01T13:05:43;6.67;;;1.83;;
11616;SDS011;5864;52.998;9.068;2022-08-01T13:08:13;9.40;;;2.70;;
11616;SDS011;5864;52.998;9.068;2022-08-01T13:10:41;8.30;;;2.00;;
11616;SDS011;5864;52.998;9.068;2022-08-01T13:13:10;7.30;;;2.03;;
11616;SDS011;5864;52.998;9.068;2022-08-01T13:15:38;7.23;;;2.40;;
11616;SDS011;5864;52.998;9.068;2022-08-01T13:21:09;5.43;;;1.70;;
11616;SDS011;5864;52.998;9.068;2022-08-01T13:23:37;3.87;;;1.83;;
11616;SDS011;5864;52.998;9.068;2022-08-01T13:26:05;6.57;;;1.80;;
11616;SDS011;5864;52.998;9.068;2022-08-01T13:28:33;6.27;;;1.80;;
11616;SDS011;5864;52.998;9.068;2022-08-01T13:31:02;5.43;;;2.13;;
11616;SDS011;5864;52.998;9.068;2022-08-01T13:33:41;6.47;;;2.10;;
11616;SDS011;5864;52.998;9.068;2022-08-01T13:36:09;6.87;;;1.80;;
11616;SDS011;5864;52.998;9.068;2022-08-01T13:38:37;7.10;;;2.07;;
11616;SDS011;5864;52.998;9.068;2022-08-01T13:41:22;4.23;;;1.70;;
11616;SDS011;5864;52.998;9.068;2022-08-01T13:43:50;6.73;;;1.90;;
11616;SDS011;5864;52.998;9.068;2022-08-01T13:46:18;4.40;;;1.93;;
11616;SDS011;5864;52.998;9.068;2022-08-01T13:48:47;5.87;;;2.03;;
11616;SDS011;5864;52.998;9.068;2022-08-01T13:51:14;4.60;;;2.00;;
11616;SDS011;5864;52.998;9.068;2022-08-01T13:53:42;6.07;;;2.00;;
11616;SDS011;5864;52.998;9.068;2022-08-01T13:56:09;5.60;;;2.07;;
11616;SDS011;5864;52.998;9.068;2022-08-01T13:58:37;7.63;;;1.93;;
11616;SDS011;5864;52.998;9.068;2022-08-01T14:01:04;10.47;;;2.13;;
11616;SDS011;5864;52.998;9.068;2022-08-01T14:03:31;6.13;;;1.73;;
11616;SDS011;5864;52.998;9.068;2022-08-01T14:06:01;4.87;;;1.97;;
11616;SDS011;5864;52.998;9.068;2022-08-01T14:08:29;6.07;;;2.10;;
11616;SDS011;5864;52.998;9.068;2022-08-01T14:10:56;6.13;;;2.00;;
11616;SDS011;5864;52.998;9.068;2022-08-01T14:13:24;3.67;;;1.90;;
11616;SDS011;5864;52.998;9.068;2022-08-01T14:15:52;4.53;;;1.73;;
11616;SDS011;5864;52.998;9.068;2022-08-01T14:18:20;6.50;;;1.83;;
11616;SDS011;5864;52.998;9.068;2022-08-01T14:20:47;8.47;;;2.07;;
11616;SDS011;5864;52.998;9.068;2022-08-01T14:23:16;5.40;;;1.90;;
11616;SDS011;5864;52.998;9.068;2022-08-01T14:25:44;6.60;;;2.03;;
11616;SDS011;5864;52.998;9.068;2022-08-01T14:28:11;4.77;;;1.70;;
11616;SDS011;5864;52.998;9.068;2022-08-01T14:30:39;5.47;;;1.70;;
11616;SDS011;5864;52.998;9.068;2022-08-01T14:33:08;5.23;;;2.10;;
11616;SDS011;5864;52.998;9.068;2022-08-01T14:35:36;7.23;;;2.43;;
11616;SDS011;5864;52.998;9.068;2022-08-01T14:38:03;5.97;;;2.23;;
11616;SDS011;5864;52.998;9.068;2022-08-01T14:40:32;6.20;;;2.00;;
11616;SDS011;5864;52.998;9.068;2022-08-01T14:42:59;4.17;;;1.77;;
11616;SDS011;5864;52.998;9.068;2022-08-01T14:45:27;5.30;;;2.10;;
11616;SDS011;5864;52.998;9.068;2022-08-01T14:47:55;5.47;;;1.90;;
11616;SDS011;5864;52.998;9.068;2022-08-01T14:50:22;3.90;;;1.50;;
11616;SDS011;5864;52.998;9.068;2022-08-01T14:52:52;7.30;;;1.97;;
11616;SDS011;5864;52.998;9.068;2022-08-01T14:55:20;7.23;;;1.90;;
11616;SDS011;5864;52.998;9.068;2022-08-01T14:57:51;4.70;;;2.00;;
11616;SDS011;5864;52.998;9.068;2022-08-01T15:00:19;5.67;;;2.03;;
11616;SDS011;5864;52.998;9.068;2022-08-01T15:02:47;4.70;;;1.73;;
11616;SDS011;5864;52.998;9.068;2022-08-01T15:05:14;5.37;;;1.83;;
11616;SDS011;5864;52.998;9.068;2022-08-01T15:07:42;6.07;;;2.40;;
11616;SDS011;5864;52.998;9.068;2022-08-01T15:10:09;6.97;;;1.80;;
11616;SDS011;5864;52.998;9.068;2022-08-01T15:12:38;5.07;;;1.90;;
11616;SDS011;5864;52.998;9.068;2022-08-01T15:15:07;6.27;;;2.03;;
11616;SDS011;5864;52.998;9.068;2022-08-01T15:17:35;6.20;;;2.07;;
11616;SDS011;5864;52.998;9.068;2022-08-01T15:20:03;6.57;;;2.30;;
11616;SDS011;5864;52.998;9.068;2022-08-01T15:22:33;5.83;;;2.30;;
11616;SDS011;5864;52.998;9.068;2022-08-01T15:25:00;6.13;;;2.13;;
11616;SDS011;5864;52.998;9.068;2022-08-01T15:27:29;6.00;;;2.00;;